sensor_id;sensor_type;location;lat;lon;timestamp;P1;durP1;ratioP1;P2;durP2;ratioP2
5060;SDS011;2549;52.128;21.068;2023-07-20T00:01:51;6.00;;;2.80;;
5060;SDS011;2549;52.128;21.068;2023-07-20T00:04:19;9.30;;;1.70;;
5060;SDS011;2549;52.128;21.068;2023-07-20T00:06:46;3.23;;;1.87;;
5060;SDS011;2549;52.128;21.068;2023-07-20T00:09:12;2.00;;;1.90;;
5060;SDS011;2549;52.128;21.068;2023-07-20T00:11:39;2.13;;;1.93;;
5060;SDS011;2549;52.128;21.068;2023-07-20T00:14:14;2.93;;;2.20;;
5060;SDS011;2549;52.128;21.068;2023-07-20T00:16:41;4.53;;;2.00;;
5060;SDS011;2549;52.128;21.068;2023-07-20T00:19:07;4.40;;;1.97;;
5060;SDS011;2549;52.128;21.068;2023-07-20T00:21:36;6.47;;;1.80;;
5060;SDS011;2549;52.128;21.068;2023-07-20T00:24:07;6.33;;;1.57;;
5060;SDS011;2549;52.128;21.068;2023-07-20T00:26:34;5.87;;;1.90;;
5060;SDS011;2549;52.128;21.068;2023-07-20T00:29:00;2.10;;;1.90;;
5060;SDS011;2549;52.128;21.068;2023-07-20T00:31:27;5.80;;;1.90;;
5060;SDS011;2549;52.128;21.068;2023-07-20T00:33:55;2.33;;;2.00;;
5060;SDS011;2549;52.128;21.068;2023-07-20T00:36:22;1.73;;;1.63;;
5060;SDS011;2549;52.128;21.068;2023-07-20T00:38:49;4.77;;;1.97;;
5060;SDS011;2549;52.128;21.068;2023-07-20T00:41:16;2.90;;;1.70;;
5060;SDS011;2549;52.128;21.068;2023-07-20T00:43:43;7.10;;;2.50;;
5060;SDS011;2549;52.128;21.068;2023-07-20T00:46:10;3.90;;;1.73;;
5060;SDS011;2549;52.128;21.068;2023-07-20T00:48:41;1.73;;;1.57;;
5060;SDS011;2549;52.128;21.068;2023-07-20T00:51:08;2.67;;;1.80;;
5060;SDS011;2549;52.128;21.068;2023-07-20T00:53:36;2.03;;;1.80;;
5060;SDS011;2549;52.128;21.068;2023-07-20T00:56:04;7.40;;;2.17;;
5060;SDS011;2549;52.128;21.068;2023-07-20T00:58:31;2.00;;;1.80;;
5060;SDS011;2549;52.128;21.068;2023-07-20T01:00:58;1.63;;;1.53;;
5060;SDS011;2549;52.128;21.068;2023-07-20T01:03:24;1.73;;;1.63;;
5060;SDS011;2549;52.128;21.068;2023-07-20T01:05:57;3.90;;;2.57;;
5060;SDS011;2549;52.128;21.068;2023-07-20T01:08:40;2.30;;;2.03;;
5060;SDS011;2549;52.128;21.068;2023-07-20T01:11:28;3.63;;;2.00;;
5060;SDS011;2549;52.128;21.068;2023-07-20T01:14:13;1.83;;;1.73;;
5060;SDS011;2549;52.128;21.068;2023-07-20T01:16:41;1.60;;;1.30;;
5060;SDS011;2549;52.128;21.068;2023-07-20T01:19:08;10.70;;;1.77;;
5060;SDS011;2549;52.128;21.068;2023-07-20T01:21:47;1.70;;;1.60;;
5060;SDS011;2549;52.128;21.068;2023-07-20T01:24:31;1.97;;;1.60;;
5060;SDS011;2549;52.128;21.068;2023-07-20T01:32:25;6.00;;;2.50;;
5060;SDS011;2549;52.128;21.068;2023-07-20T01:34:54;2.50;;;1.83;;
5060;SDS011;2549;52.128;21.068;2023-07-20T01:37:23;4.37;;;2.30;;
5060;SDS011;2549;52.128;21.068;2023-07-20T01:39:54;3.30;;;2.00;;
5060;SDS011;2549;52.128;21.068;2023-07-20T01:42:22;4.93;;;2.27;;
5060;SDS011;2549;52.128;21.068;2023-07-20T01:44:51;7.10;;;2.60;;
5060;SDS011;2549;52.128;21.068;2023-07-20T01:47:19;2.97;;;2.20;;
5060;SDS011;2549;52.128;21.068;2023-07-20T01:49:46;4.93;;;2.60;;
5060;SDS011;2549;52.128;21.068;2023-07-20T01:52:13;3.23;;;2.50;;
5060;SDS011;2549;52.128;21.068;2023-07-20T01:54:40;5.40;;;2.60;;
5060;SDS011;2549;52.128;21.068;2023-07-20T01:57:07;4.90;;;2.37;;
5060;SDS011;2549;52.128;21.068;2023-07-20T01:59:33;4.27;;;2.57;;
5060;SDS011;2549;52.128;21.068;2023-07-20T02:02:00;4.93;;;3.10;;
5060;SDS011;2549;52.128;21.068;2023-07-20T02:04:27;2.60;;;2.40;;
5060;SDS011;2549;52.128;21.068;2023-07-20T02:06:54;4.13;;;2.83;;
5060;SDS011;2549;52.128;21.068;2023-07-20T02:09:21;4.00;;;3.20;;
5060;SDS011;2549;52.128;21.068;2023-07-20T02:11:47;2.50;;;2.30;;
5060;SDS011;2549;52.128;21.068;2023-07-20T02:14:14;9.97;;;2.70;;
5060;SDS011;2549;52.128;21.068;2023-07-20T02:16:41;2.97;;;2.77;;
5060;SDS011;2549;52.128;21.068;2023-07-20T02:19:08;3.40;;;3.10;;
5060;SDS011;2549;52.128;21.068;2023-07-20T02:21:35;3.70;;;2.67;;
5060;SDS011;2549;52.128;21.068;2023-07-20T02:24:02;3.87;;;2.80;;
5060;SDS011;2549;52.128;21.068;2023-07-20T02:26:29;3.00;;;2.70;;
5060;SDS011;2549;52.128;21.068;2023-07-20T02:28:56;6.80;;;2.37;;
5060;SDS011;2549;52.128;21.068;2023-07-20T02:31:23;5.07;;;2.60;;
5060;SDS011;2549;52.128;21.068;2023-07-20T02:33:50;8.63;;;2.33;;
5060;SDS011;2549;52.128;21.068;2023-07-20T02:36:16;4.73;;;2.83;;
5060;SDS011;2549;52.128;21.068;2023-07-20T02:38:44;4.60;;;2.57;;
5060;SDS011;2549;52.128;21.068;2023-07-20T02:41:10;2.83;;;2.57;;
5060;SDS011;2549;52.128;21.068;2023-07-20T02:43:38;3.07;;;2.60;;
5060;SDS011;2549;52.128;21.068;2023-07-20T02:46:05;3.43;;;2.77;;
5060;SDS011;2549;52.128;21.068;2023-07-20T02:48:31;6.13;;;2.27;;
5060;SDS011;2549;52.128;21.068;2023-07-20T02:50:58;2.37;;;2.17;;
5060;SDS011;2549;52.128;21.068;2023-07-20T02:53:25;3.90;;;2.37;;
5060;SDS011;2549;52.128;21.068;2023-07-20T02:55:52;3.60;;;2.23;;
5060;SDS011;2549;52.128;21.068;2023-07-20T02:58:19;2.93;;;1.73;;
5060;SDS011;2549;52.128;21.068;2023-07-20T03:00:46;3.83;;;2.67;;
5060;SDS011;2549;52.128;21.068;2023-07-20T03:03:13;2.90;;;2.63;;
5060;SDS011;2549;52.128;21.068;2023-07-20T03:05:40;3.07;;;2.77;;
5060;SDS011;2549;52.128;21.068;2023-07-20T03:08:08;3.40;;;2.70;;
5060;SDS011;2549;52.128;21.068;2023-07-20T03:10:38;3.57;;;2.47;;
5060;SDS011;2549;52.128;21.068;2023-07-20T03:13:06;2.30;;;2.10;;
5060;SDS011;2549;52.128;21.068;2023-07-20T03:15:34;6.90;;;2.03;;
5060;SDS011;2549;52.128;21.068;2023-07-20T03:18:01;5.87;;;2.10;;
5060;SDS011;2549;52.128;21.068;2023-07-20T03:20:29;5.53;;;2.73;;
5060;SDS011;2549;52.128;21.068;2023-07-20T03:22:57;5.30;;;2.80;;
5060;SDS011;2549;52.128;21.068;2023-07-20T03:25:24;4.87;;;2.60;;
5060;SDS011;2549;52.128;21.068;2023-07-20T03:27:54;3.43;;;2.33;;
5060;SDS011;2549;52.128;21.068;2023-07-20T03:30:21;4.40;;;2.30;;
5060;SDS011;2549;52.128;21.068;2023-07-20T03:32:49;4.30;;;2.30;;
5060;SDS011;2549;52.128;21.068;2023-07-20T03:35:16;11.27;;;2.87;;
5060;SDS011;2549;52.128;21.068;2023-07-20T03:37:43;3.23;;;2.20;;
5060;SDS011;2549;52.128;21.068;2023-07-20T03:40:10;3.63;;;2.63;;
5060;SDS011;2549;52.128;21.068;2023-07-20T03:42:37;2.70;;;2.30;;
5060;SDS011;2549;52.128;21.068;2023-07-20T03:45:05;7.07;;;2.87;;
5060;SDS011;2549;52.128;21.068;2023-07-20T03:47:32;2.57;;;2.33;;
5060;SDS011;2549;52.128;21.068;2023-07-20T03:49:59;4.83;;;2.10;;
5060;SDS011;2549;52.128;21.068;2023-07-20T03:52:26;2.47;;;2.27;;
5060;SDS011;2549;52.128;21.068;2023-07-20T03:54:53;5.30;;;2.80;;
5060;SDS011;2549;52.128;21.068;2023-07-20T03:57:20;5.03;;;2.63;;
5060;SDS011;2549;52.128;21.068;2023-07-20T03:59:47;3.00;;;2.20;;
5060;SDS011;2549;52.128;21.068;2023-07-20T04:02:14;5.63;;;2.20;;
5060;SDS011;2549;52.128;21.068;2023-07-20T04:04:41;4.17;;;1.73;;
5060;SDS011;2549;52.128;21.068;2023-07-20T04:07:08;2.63;;;2.00;;
5060;SDS011;2549;52.128;21.068;2023-07-20T04:09:35;2.50;;;2.00;;
5060;SDS011;2549;52.128;21.068;2023-07-20T04:12:02;2.73;;;2.07;;
5060;SDS011;2549;52.128;21.068;2023-07-20T04:14:29;3.90;;;2.40;;
5060;SDS011;2549;52.128;21.068;2023-07-20T04:16:56;2.93;;;2.20;;
5060;SDS011;2549;52.128;21.068;2023-07-20T04:19:22;3.00;;;2.13;;
5060;SDS011;2549;52.128;21.068;2023-07-20T04:21:49;2.67;;;1.80;;
5060;SDS011;2549;52.128;21.068;2023-07-20T04:24:16;5.03;;;2.10;;
5060;SDS011;2549;52.128;21.068;2023-07-20T04:26:44;5.90;;;2.10;;
5060;SDS011;2549;52.128;21.068;2023-07-20T04:29:11;3.27;;;2.70;;
5060;SDS011;2549;52.128;21.068;2023-07-20T04:31:38;2.73;;;2.47;;
5060;SDS011;2549;52.128;21.068;2023-07-20T04:34:05;5.37;;;3.00;;
5060;SDS011;2549;52.128;21.068;2023-07-20T04:36:32;4.90;;;2.87;;
5060;SDS011;2549;52.128;21.068;2023-07-20T04:38:59;4.27;;;2.70;;
5060;SDS011;2549;52.128;21.068;2023-07-20T04:41:25;6.67;;;3.40;;
5060;SDS011;2549;52.128;21.068;2023-07-20T04:43:52;5.23;;;3.00;;
5060;SDS011;2549;52.128;21.068;2023-07-20T04:46:19;3.97;;;3.30;;
5060;SDS011;2549;52.128;21.068;2023-07-20T04:48:48;4.50;;;2.60;;
5060;SDS011;2549;52.128;21.068;2023-07-20T04:51:14;5.60;;;3.10;;
5060;SDS011;2549;52.128;21.068;2023-07-20T04:53:43;21.87;;;3.20;;
5060;SDS011;2549;52.128;21.068;2023-07-20T04:56:10;3.20;;;3.00;;
5060;SDS011;2549;52.128;21.068;2023-07-20T04:58:37;5.03;;;2.70;;
5060;SDS011;2549;52.128;21.068;2023-07-20T05:01:04;5.30;;;3.00;;
5060;SDS011;2549;52.128;21.068;2023-07-20T05:03:31;3.57;;;3.27;;
5060;SDS011;2549;52.128;21.068;2023-07-20T05:05:58;11.40;;;3.50;;
5060;SDS011;2549;52.128;21.068;2023-07-20T05:08:25;6.60;;;3.27;;
5060;SDS011;2549;52.128;21.068;2023-07-20T05:10:52;4.10;;;2.90;;
5060;SDS011;2549;52.128;21.068;2023-07-20T05:13:18;8.13;;;4.10;;
5060;SDS011;2549;52.128;21.068;2023-07-20T05:15:45;6.20;;;3.23;;
5060;SDS011;2549;52.128;21.068;2023-07-20T05:18:12;3.10;;;2.80;;
5060;SDS011;2549;52.128;21.068;2023-07-20T05:20:39;3.00;;;2.80;;
5060;SDS011;2549;52.128;21.068;2023-07-20T05:23:06;3.37;;;2.50;;
5060;SDS011;2549;52.128;21.068;2023-07-20T05:25:33;4.63;;;3.20;;
5060;SDS011;2549;52.128;21.068;2023-07-20T05:27:59;3.33;;;3.03;;
5060;SDS011;2549;52.128;21.068;2023-07-20T05:30:26;5.90;;;3.17;;
5060;SDS011;2549;52.128;21.068;2023-07-20T05:32:55;3.40;;;2.93;;
5060;SDS011;2549;52.128;21.068;2023-07-20T05:35:22;6.20;;;3.50;;
5060;SDS011;2549;52.128;21.068;2023-07-20T05:37:49;5.20;;;3.47;;
5060;SDS011;2549;52.128;21.068;2023-07-20T05:40:16;4.07;;;3.00;;
5060;SDS011;2549;52.128;21.068;2023-07-20T05:42:47;10.60;;;3.13;;
5060;SDS011;2549;52.128;21.068;2023-07-20T05:45:17;9.20;;;3.70;;
5060;SDS011;2549;52.128;21.068;2023-07-20T05:47:44;4.57;;;3.10;;
5060;SDS011;2549;52.128;21.068;2023-07-20T05:50:12;5.77;;;3.20;;
5060;SDS011;2549;52.128;21.068;2023-07-20T05:52:39;5.00;;;3.70;;
5060;SDS011;2549;52.128;21.068;2023-07-20T05:55:07;4.27;;;3.20;;
5060;SDS011;2549;52.128;21.068;2023-07-20T05:57:34;3.73;;;3.40;;
5060;SDS011;2549;52.128;21.068;2023-07-20T06:00:01;9.20;;;3.77;;
5060;SDS011;2549;52.128;21.068;2023-07-20T06:02:29;7.10;;;4.03;;
5060;SDS011;2549;52.128;21.068;2023-07-20T06:04:56;5.20;;;3.50;;
5060;SDS011;2549;52.128;21.068;2023-07-20T06:07:23;4.20;;;3.70;;
5060;SDS011;2549;52.128;21.068;2023-07-20T06:09:50;5.53;;;4.10;;
5060;SDS011;2549;52.128;21.068;2023-07-20T06:12:16;4.17;;;3.63;;
5060;SDS011;2549;52.128;21.068;2023-07-20T06:14:43;6.30;;;3.53;;
5060;SDS011;2549;52.128;21.068;2023-07-20T06:17:10;3.53;;;3.20;;
5060;SDS011;2549;52.128;21.068;2023-07-20T06:19:37;10.67;;;4.73;;
5060;SDS011;2549;52.128;21.068;2023-07-20T06:22:04;5.70;;;3.03;;
5060;SDS011;2549;52.128;21.068;2023-07-20T06:24:31;4.07;;;3.67;;
5060;SDS011;2549;52.128;21.068;2023-07-20T06:26:58;7.20;;;3.30;;
5060;SDS011;2549;52.128;21.068;2023-07-20T06:29:25;4.27;;;3.87;;
5060;SDS011;2549;52.128;21.068;2023-07-20T06:31:51;5.13;;;3.37;;
5060;SDS011;2549;52.128;21.068;2023-07-20T06:34:18;5.30;;;3.20;;
5060;SDS011;2549;52.128;21.068;2023-07-20T06:36:49;3.50;;;3.20;;
5060;SDS011;2549;52.128;21.068;2023-07-20T06:39:16;3.67;;;3.03;;
5060;SDS011;2549;52.128;21.068;2023-07-20T06:41:45;7.80;;;4.30;;
5060;SDS011;2549;52.128;21.068;2023-07-20T06:44:12;4.17;;;3.70;;
5060;SDS011;2549;52.128;21.068;2023-07-20T06:46:39;7.07;;;3.70;;
5060;SDS011;2549;52.128;21.068;2023-07-20T06:49:06;9.00;;;4.33;;
5060;SDS011;2549;52.128;21.068;2023-07-20T06:51:37;5.43;;;3.70;;
5060;SDS011;2549;52.128;21.068;2023-07-20T06:54:04;4.63;;;4.10;;
5060;SDS011;2549;52.128;21.068;2023-07-20T06:56:31;5.17;;;4.23;;
5060;SDS011;2549;52.128;21.068;2023-07-20T06:58:59;11.73;;;4.23;;
5060;SDS011;2549;52.128;21.068;2023-07-20T07:01:26;5.73;;;3.50;;
5060;SDS011;2549;52.128;21.068;2023-07-20T07:03:53;5.30;;;3.90;;
5060;SDS011;2549;52.128;21.068;2023-07-20T07:06:21;5.10;;;3.70;;
5060;SDS011;2549;52.128;21.068;2023-07-20T07:08:50;8.07;;;3.40;;
5060;SDS011;2549;52.128;21.068;2023-07-20T07:11:18;7.30;;;4.10;;
5060;SDS011;2549;52.128;21.068;2023-07-20T07:13:54;4.60;;;3.80;;
5060;SDS011;2549;52.128;21.068;2023-07-20T07:16:22;9.33;;;5.10;;
5060;SDS011;2549;52.128;21.068;2023-07-20T07:18:50;13.00;;;4.30;;
5060;SDS011;2549;52.128;21.068;2023-07-20T07:21:17;9.63;;;4.40;;
5060;SDS011;2549;52.128;21.068;2023-07-20T07:23:45;6.73;;;4.10;;
5060;SDS011;2549;52.128;21.068;2023-07-20T07:26:12;9.93;;;5.23;;
5060;SDS011;2549;52.128;21.068;2023-07-20T07:28:39;5.53;;;4.47;;
5060;SDS011;2549;52.128;21.068;2023-07-20T07:31:06;7.10;;;4.60;;
5060;SDS011;2549;52.128;21.068;2023-07-20T07:33:34;8.90;;;4.67;;
5060;SDS011;2549;52.128;21.068;2023-07-20T07:36:01;8.90;;;4.90;;
5060;SDS011;2549;52.128;21.068;2023-07-20T07:38:28;5.03;;;3.30;;
5060;SDS011;2549;52.128;21.068;2023-07-20T07:41:15;5.53;;;4.10;;
5060;SDS011;2549;52.128;21.068;2023-07-20T07:43:42;4.13;;;3.73;;
5060;SDS011;2549;52.128;21.068;2023-07-20T07:46:09;9.27;;;4.67;;
5060;SDS011;2549;52.128;21.068;2023-07-20T07:48:36;18.80;;;4.57;;
5060;SDS011;2549;52.128;21.068;2023-07-20T07:51:03;7.80;;;4.47;;
5060;SDS011;2549;52.128;21.068;2023-07-20T07:53:30;11.13;;;4.97;;
5060;SDS011;2549;52.128;21.068;2023-07-20T07:55:58;4.47;;;3.90;;
5060;SDS011;2549;52.128;21.068;2023-07-20T07:58:25;7.60;;;4.10;;
5060;SDS011;2549;52.128;21.068;2023-07-20T08:00:52;5.87;;;4.30;;
5060;SDS011;2549;52.128;21.068;2023-07-20T08:03:19;6.63;;;4.13;;
5060;SDS011;2549;52.128;21.068;2023-07-20T08:05:46;9.23;;;4.43;;
5060;SDS011;2549;52.128;21.068;2023-07-20T08:08:13;8.87;;;4.60;;
5060;SDS011;2549;52.128;21.068;2023-07-20T08:10:40;7.00;;;3.57;;
5060;SDS011;2549;52.128;21.068;2023-07-20T08:13:07;14.73;;;5.07;;
5060;SDS011;2549;52.128;21.068;2023-07-20T08:15:34;9.53;;;4.80;;
5060;SDS011;2549;52.128;21.068;2023-07-20T08:18:00;5.33;;;4.03;;
5060;SDS011;2549;52.128;21.068;2023-07-20T08:20:27;7.07;;;5.50;;
5060;SDS011;2549;52.128;21.068;2023-07-20T08:22:54;5.37;;;4.67;;
5060;SDS011;2549;52.128;21.068;2023-07-20T08:25:22;8.87;;;4.30;;
5060;SDS011;2549;52.128;21.068;2023-07-20T08:27:49;10.40;;;4.23;;
5060;SDS011;2549;52.128;21.068;2023-07-20T08:30:15;6.07;;;4.00;;
5060;SDS011;2549;52.128;21.068;2023-07-20T08:32:43;3.80;;;3.50;;
5060;SDS011;2549;52.128;21.068;2023-07-20T08:35:10;5.30;;;3.93;;
5060;SDS011;2549;52.128;21.068;2023-07-20T08:37:37;8.00;;;3.90;;
5060;SDS011;2549;52.128;21.068;2023-07-20T08:40:04;4.77;;;4.00;;
5060;SDS011;2549;52.128;21.068;2023-07-20T08:42:35;5.73;;;4.20;;
5060;SDS011;2549;52.128;21.068;2023-07-20T08:45:04;10.93;;;4.00;;
5060;SDS011;2549;52.128;21.068;2023-07-20T08:47:34;4.10;;;3.17;;
5060;SDS011;2549;52.128;21.068;2023-07-20T08:50:02;3.70;;;3.40;;
5060;SDS011;2549;52.128;21.068;2023-07-20T08:52:33;5.10;;;3.57;;
5060;SDS011;2549;52.128;21.068;2023-07-20T08:55:01;3.10;;;2.80;;
5060;SDS011;2549;52.128;21.068;2023-07-20T08:57:31;6.30;;;2.90;;
5060;SDS011;2549;52.128;21.068;2023-07-20T09:00:00;5.40;;;3.70;;
5060;SDS011;2549;52.128;21.068;2023-07-20T09:02:52;6.60;;;3.03;;
5060;SDS011;2549;52.128;21.068;2023-07-20T09:05:20;7.27;;;2.90;;
5060;SDS011;2549;52.128;21.068;2023-07-20T09:07:50;3.43;;;2.80;;
5060;SDS011;2549;52.128;21.068;2023-07-20T09:10:18;6.10;;;2.50;;
5060;SDS011;2549;52.128;21.068;2023-07-20T09:12:47;5.10;;;3.50;;
5060;SDS011;2549;52.128;21.068;2023-07-20T09:15:14;6.30;;;3.30;;
5060;SDS011;2549;52.128;21.068;2023-07-20T09:17:45;3.50;;;2.97;;
5060;SDS011;2549;52.128;21.068;2023-07-20T09:20:14;4.00;;;2.93;;
5060;SDS011;2549;52.128;21.068;2023-07-20T09:22:48;5.83;;;3.60;;
5060;SDS011;2549;52.128;21.068;2023-07-20T09:25:19;6.73;;;3.37;;
5060;SDS011;2549;52.128;21.068;2023-07-20T09:27:48;4.70;;;2.87;;
5060;SDS011;2549;52.128;21.068;2023-07-20T09:30:18;4.70;;;3.07;;
5060;SDS011;2549;52.128;21.068;2023-07-20T09:32:46;5.00;;;3.60;;
5060;SDS011;2549;52.128;21.068;2023-07-20T09:35:17;4.67;;;2.70;;
5060;SDS011;2549;52.128;21.068;2023-07-20T09:37:57;5.33;;;2.90;;
5060;SDS011;2549;52.128;21.068;2023-07-20T09:40:28;11.33;;;2.87;;
5060;SDS011;2549;52.128;21.068;2023-07-20T09:42:58;3.97;;;3.17;;
5060;SDS011;2549;52.128;21.068;2023-07-20T09:45:33;2.80;;;2.60;;
5060;SDS011;2549;52.128;21.068;2023-07-20T09:48:05;3.10;;;2.40;;
5060;SDS011;2549;52.128;21.068;2023-07-20T09:50:42;2.23;;;2.10;;
5060;SDS011;2549;52.128;21.068;2023-07-20T09:53:13;2.00;;;1.90;;
5060;SDS011;2549;52.128;21.068;2023-07-20T09:55:41;5.40;;;2.70;;
5060;SDS011;2549;52.128;21.068;2023-07-20T09:58:10;7.00;;;2.47;;
5060;SDS011;2549;52.128;21.068;2023-07-20T10:00:38;2.97;;;2.70;;
5060;SDS011;2549;52.128;21.068;2023-07-20T10:03:09;3.97;;;1.90;;
5060;SDS011;2549;52.128;21.068;2023-07-20T10:08:38;3.47;;;2.53;;
5060;SDS011;2549;52.128;21.068;2023-07-20T10:11:09;6.20;;;1.80;;
5060;SDS011;2549;52.128;21.068;2023-07-20T10:13:39;1.90;;;1.80;;
5060;SDS011;2549;52.128;21.068;2023-07-20T10:16:11;5.20;;;2.13;;
5060;SDS011;2549;52.128;21.068;2023-07-20T10:21:30;2.03;;;1.87;;
5060;SDS011;2549;52.128;21.068;2023-07-20T10:24:01;2.00;;;1.50;;
5060;SDS011;2549;52.128;21.068;2023-07-20T10:26:29;1.57;;;1.50;;
5060;SDS011;2549;52.128;21.068;2023-07-20T10:28:56;1.50;;;1.40;;
5060;SDS011;2549;52.128;21.068;2023-07-20T10:31:24;2.50;;;1.63;;
5060;SDS011;2549;52.128;21.068;2023-07-20T10:33:58;3.43;;;1.47;;
5060;SDS011;2549;52.128;21.068;2023-07-20T10:36:26;1.73;;;1.30;;
5060;SDS011;2549;52.128;21.068;2023-07-20T10:38:57;2.00;;;1.83;;
5060;SDS011;2549;52.128;21.068;2023-07-20T10:41:34;3.03;;;1.70;;
5060;SDS011;2549;52.128;21.068;2023-07-20T10:44:03;4.33;;;1.37;;
5060;SDS011;2549;52.128;21.068;2023-07-20T10:49:11;1.37;;;1.27;;
5060;SDS011;2549;52.128;21.068;2023-07-20T10:51:40;1.30;;;1.10;;
5060;SDS011;2549;52.128;21.068;2023-07-20T10:56:47;2.00;;;1.80;;
5060;SDS011;2549;52.128;21.068;2023-07-20T11:01:59;2.43;;;2.10;;
5060;SDS011;2549;52.128;21.068;2023-07-20T11:04:39;1.80;;;1.70;;
5060;SDS011;2549;52.128;21.068;2023-07-20T11:07:06;2.13;;;1.70;;
5060;SDS011;2549;52.128;21.068;2023-07-20T11:09:34;1.90;;;1.80;;
5060;SDS011;2549;52.128;21.068;2023-07-20T11:12:09;2.80;;;2.07;;
5060;SDS011;2549;52.128;21.068;2023-07-20T11:14:44;4.17;;;1.77;;
5060;SDS011;2549;52.128;21.068;2023-07-20T11:17:20;3.67;;;1.67;;
5060;SDS011;2549;52.128;21.068;2023-07-20T11:19:56;5.60;;;2.13;;
5060;SDS011;2549;52.128;21.068;2023-07-20T11:22:27;1.57;;;1.47;;
5060;SDS011;2549;52.128;21.068;2023-07-20T11:24:57;1.53;;;1.30;;
5060;SDS011;2549;52.128;21.068;2023-07-20T11:27:25;1.63;;;1.50;;
5060;SDS011;2549;52.128;21.068;2023-07-20T11:29:52;1.73;;;1.63;;
5060;SDS011;2549;52.128;21.068;2023-07-20T11:32:22;1.30;;;1.20;;
5060;SDS011;2549;52.128;21.068;2023-07-20T11:34:50;4.00;;;1.77;;
5060;SDS011;2549;52.128;21.068;2023-07-20T11:37:17;1.20;;;1.20;;
5060;SDS011;2549;52.128;21.068;2023-07-20T11:39:45;2.20;;;1.77;;
5060;SDS011;2549;52.128;21.068;2023-07-20T11:42:13;2.07;;;1.77;;
5060;SDS011;2549;52.128;21.068;2023-07-20T11:45:05;1.43;;;1.33;;
5060;SDS011;2549;52.128;21.068;2023-07-20T11:47:32;1.63;;;1.47;;
5060;SDS011;2549;52.128;21.068;2023-07-20T11:50:03;2.90;;;1.40;;
5060;SDS011;2549;52.128;21.068;2023-07-20T11:52:30;3.37;;;1.70;;
5060;SDS011;2549;52.128;21.068;2023-07-20T11:54:58;2.37;;;2.27;;
5060;SDS011;2549;52.128;21.068;2023-07-20T11:57:25;1.87;;;1.67;;
5060;SDS011;2549;52.128;21.068;2023-07-20T11:59:55;1.77;;;1.40;;
5060;SDS011;2549;52.128;21.068;2023-07-20T12:02:24;3.63;;;1.77;;
5060;SDS011;2549;52.128;21.068;2023-07-20T12:04:56;1.70;;;1.60;;
5060;SDS011;2549;52.128;21.068;2023-07-20T12:07:25;2.20;;;2.00;;
5060;SDS011;2549;52.128;21.068;2023-07-20T12:10:03;1.80;;;1.70;;
5060;SDS011;2549;52.128;21.068;2023-07-20T12:12:34;2.10;;;1.93;;
5060;SDS011;2549;52.128;21.068;2023-07-20T12:15:16;2.13;;;1.93;;
5060;SDS011;2549;52.128;21.068;2023-07-20T12:17:51;1.30;;;1.30;;
5060;SDS011;2549;52.128;21.068;2023-07-20T12:22:52;1.50;;;1.40;;
5060;SDS011;2549;52.128;21.068;2023-07-20T12:25:23;1.67;;;1.57;;
5060;SDS011;2549;52.128;21.068;2023-07-20T12:28:00;1.50;;;1.40;;
5060;SDS011;2549;52.128;21.068;2023-07-20T12:30:29;1.50;;;1.40;;
5060;SDS011;2549;52.128;21.068;2023-07-20T12:32:55;2.33;;;1.27;;
5060;SDS011;2549;52.128;21.068;2023-07-20T12:35:22;5.40;;;1.00;;
5060;SDS011;2549;52.128;21.068;2023-07-20T12:37:49;1.40;;;1.20;;
5060;SDS011;2549;52.128;21.068;2023-07-20T12:40:17;1.50;;;1.30;;
5060;SDS011;2549;52.128;21.068;2023-07-20T12:42:44;3.33;;;1.20;;
5060;SDS011;2549;52.128;21.068;2023-07-20T12:45:11;1.53;;;1.20;;
5060;SDS011;2549;52.128;21.068;2023-07-20T12:47:40;1.60;;;1.50;;
5060;SDS011;2549;52.128;21.068;2023-07-20T12:50:07;1.63;;;1.30;;
5060;SDS011;2549;52.128;21.068;2023-07-20T12:52:37;7.70;;;1.90;;
5060;SDS011;2549;52.128;21.068;2023-07-20T12:55:06;2.07;;;1.97;;
5060;SDS011;2549;52.128;21.068;2023-07-20T12:57:34;2.77;;;1.47;;
5060;SDS011;2549;52.128;21.068;2023-07-20T13:00:06;1.93;;;1.50;;
5060;SDS011;2549;52.128;21.068;2023-07-20T13:02:38;3.90;;;1.60;;
5060;SDS011;2549;52.128;21.068;2023-07-20T13:05:05;1.67;;;1.57;;
5060;SDS011;2549;52.128;21.068;2023-07-20T13:07:36;2.97;;;1.90;;
5060;SDS011;2549;52.128;21.068;2023-07-20T13:10:07;1.70;;;1.60;;
5060;SDS011;2549;52.128;21.068;2023-07-20T13:12:35;1.73;;;1.63;;
5060;SDS011;2549;52.128;21.068;2023-07-20T13:15:05;1.53;;;1.43;;
5060;SDS011;2549;52.128;21.068;2023-07-20T13:17:34;1.80;;;1.70;;
5060;SDS011;2549;52.128;21.068;2023-07-20T13:20:02;1.50;;;1.40;;
5060;SDS011;2549;52.128;21.068;2023-07-20T13:22:33;3.37;;;1.73;;
5060;SDS011;2549;52.128;21.068;2023-07-20T13:25:01;1.40;;;1.30;;
5060;SDS011;2549;52.128;21.068;2023-07-20T13:27:28;2.20;;;1.60;;
5060;SDS011;2549;52.128;21.068;2023-07-20T13:29:58;1.57;;;1.47;;
5060;SDS011;2549;52.128;21.068;2023-07-20T13:32:35;1.80;;;1.70;;
5060;SDS011;2549;52.128;21.068;2023-07-20T13:35:03;1.43;;;1.33;;
5060;SDS011;2549;52.128;21.068;2023-07-20T13:37:30;3.53;;;1.93;;
5060;SDS011;2549;52.128;21.068;2023-07-20T13:39:57;1.70;;;1.60;;
5060;SDS011;2549;52.128;21.068;2023-07-20T13:42:24;4.23;;;1.70;;
5060;SDS011;2549;52.128;21.068;2023-07-20T13:44:50;1.57;;;1.47;;
5060;SDS011;2549;52.128;21.068;2023-07-20T13:47:17;2.17;;;1.53;;
5060;SDS011;2549;52.128;21.068;2023-07-20T13:49:47;1.23;;;1.03;;
5060;SDS011;2549;52.128;21.068;2023-07-20T13:52:28;1.57;;;1.40;;
5060;SDS011;2549;52.128;21.068;2023-07-20T13:54:58;1.17;;;1.13;;
5060;SDS011;2549;52.128;21.068;2023-07-20T13:57:25;2.20;;;1.50;;
5060;SDS011;2549;52.128;21.068;2023-07-20T13:59:53;3.43;;;1.50;;
5060;SDS011;2549;52.128;21.068;2023-07-20T14:02:20;1.67;;;1.20;;
5060;SDS011;2549;52.128;21.068;2023-07-20T14:04:50;3.07;;;1.80;;
5060;SDS011;2549;52.128;21.068;2023-07-20T14:07:36;4.10;;;1.03;;
5060;SDS011;2549;52.128;21.068;2023-07-20T14:10:04;1.37;;;1.33;;
5060;SDS011;2549;52.128;21.068;2023-07-20T14:12:34;1.50;;;1.40;;
5060;SDS011;2549;52.128;21.068;2023-07-20T14:15:01;2.63;;;1.33;;
5060;SDS011;2549;52.128;21.068;2023-07-20T14:17:28;3.43;;;1.17;;
5060;SDS011;2549;52.128;21.068;2023-07-20T14:19:56;2.17;;;1.43;;
5060;SDS011;2549;52.128;21.068;2023-07-20T14:22:23;1.50;;;1.40;;
5060;SDS011;2549;52.128;21.068;2023-07-20T14:24:52;1.53;;;1.30;;
5060;SDS011;2549;52.128;21.068;2023-07-20T14:27:19;1.10;;;1.00;;
5060;SDS011;2549;52.128;21.068;2023-07-20T14:29:46;2.90;;;1.30;;
5060;SDS011;2549;52.128;21.068;2023-07-20T14:32:13;1.30;;;1.20;;
5060;SDS011;2549;52.128;21.068;2023-07-20T14:34:40;1.23;;;1.20;;
5060;SDS011;2549;52.128;21.068;2023-07-20T14:37:07;1.03;;;1.03;;
5060;SDS011;2549;52.128;21.068;2023-07-20T14:39:34;1.20;;;1.20;;
5060;SDS011;2549;52.128;21.068;2023-07-20T14:42:01;1.40;;;1.30;;
5060;SDS011;2549;52.128;21.068;2023-07-20T14:44:30;1.23;;;1.13;;
5060;SDS011;2549;52.128;21.068;2023-07-20T14:46:57;1.87;;;1.77;;
5060;SDS011;2549;52.128;21.068;2023-07-20T14:49:39;3.77;;;1.60;;
5060;SDS011;2549;52.128;21.068;2023-07-20T14:52:06;1.67;;;1.57;;
5060;SDS011;2549;52.128;21.068;2023-07-20T14:54:36;1.40;;;1.30;;
5060;SDS011;2549;52.128;21.068;2023-07-20T14:57:03;1.67;;;1.40;;
5060;SDS011;2549;52.128;21.068;2023-07-20T14:59:31;8.47;;;1.57;;
5060;SDS011;2549;52.128;21.068;2023-07-20T15:01:58;1.77;;;1.40;;
5060;SDS011;2549;52.128;21.068;2023-07-20T15:04:24;1.17;;;1.17;;
5060;SDS011;2549;52.128;21.068;2023-07-20T15:06:53;1.60;;;1.17;;
5060;SDS011;2549;52.128;21.068;2023-07-20T15:09:21;3.23;;;1.97;;
5060;SDS011;2549;52.128;21.068;2023-07-20T15:11:48;1.33;;;1.20;;
5060;SDS011;2549;52.128;21.068;2023-07-20T15:14:14;1.40;;;1.30;;
5060;SDS011;2549;52.128;21.068;2023-07-20T15:16:41;3.07;;;1.43;;
5060;SDS011;2549;52.128;21.068;2023-07-20T15:19:09;5.83;;;1.90;;
5060;SDS011;2549;52.128;21.068;2023-07-20T15:21:37;1.20;;;1.20;;
5060;SDS011;2549;52.128;21.068;2023-07-20T15:24:05;1.20;;;1.10;;
5060;SDS011;2549;52.128;21.068;2023-07-20T15:26:32;1.50;;;1.40;;
5060;SDS011;2549;52.128;21.068;2023-07-20T15:29:01;0.90;;;0.90;;
5060;SDS011;2549;52.128;21.068;2023-07-20T15:31:28;1.40;;;1.30;;